createdAt,value
2023-04-10T00:00:14.822Z,82.84
2023-04-10T00:01:08.708Z,82.85
2023-04-10T00:01:42.446Z,83.00
2023-04-10T00:02:16.292Z,82.92
2023-04-10T00:02:50.152Z,82.96
2023-04-10T00:03:24.868Z,82.96
2023-04-10T00:03:59.221Z,82.98
2023-04-10T00:04:33.448Z,83.01
2023-04-10T00:05:08.388Z,83.03
2023-04-10T00:05:42.920Z,83.08
2023-04-10T00:06:16.798Z,83.10
2023-04-10T00:06:51.328Z,83.08
2023-04-10T00:07:27.882Z,83.12
2023-04-10T00:08:03.192Z,83.12
2023-04-10T00:08:36.922Z,83.17
2023-04-10T00:09:11.256Z,83.09
2023-04-10T00:09:44.966Z,83.22
2023-04-10T00:10:22.643Z,83.16
2023-04-10T00:11:01.864Z,83.21
2023-04-10T00:11:39.007Z,83.25
2023-04-10T00:12:12.346Z,83.33
2023-04-10T00:12:46.698Z,83.14
2023-04-10T00:13:20.786Z,83.14
2023-04-10T00:13:54.866Z,83.22
2023-04-10T00:14:29.010Z,83.23
2023-04-10T00:15:02.603Z,83.21
2023-04-10T00:15:36.310Z,83.21
2023-04-10T00:16:09.870Z,83.30
2023-04-10T00:16:43.406Z,83.28
2023-04-10T00:17:17.024Z,83.31
2023-04-10T00:17:55.454Z,83.28
2023-04-10T00:18:29.404Z,83.31
2023-04-10T00:19:02.944Z,83.27
2023-04-10T00:19:36.764Z,83.29
2023-04-10T00:20:10.556Z,83.41
2023-04-10T00:20:43.910Z,83.44
2023-04-10T00:21:17.698Z,83.44
2023-04-10T00:21:51.556Z,83.36
2023-04-10T00:22:26.164Z,83.40
2023-04-10T00:22:59.808Z,83.37
2023-04-10T00:23:34.853Z,83.48
2023-04-10T00:24:08.718Z,83.40
2023-04-10T00:24:44.884Z,83.38
2023-04-10T00:25:18.571Z,83.47
2023-04-10T00:25:52.076Z,83.41
2023-04-10T00:26:27.063Z,83.41
2023-04-10T00:27:01.954Z,83.43
2023-04-10T00:27:35.566Z,83.40
2023-04-10T00:28:09.148Z,83.39
2023-04-10T00:28:42.674Z,83.41
2023-04-10T00:29:16.356Z,83.39
2023-04-10T00:29:50.238Z,83.43
2023-04-10T00:30:24.075Z,83.37
2023-04-10T00:30:57.636Z,83.46
2023-04-10T00:31:32.056Z,83.46
2023-04-10T00:32:05.746Z,83.46
2023-04-10T00:32:39.336Z,83.47
2023-04-10T00:33:12.973Z,83.45
2023-04-10T00:33:46.564Z,83.47
2023-04-10T00:34:20.084Z,83.42
2023-04-10T00:34:53.921Z,83.40
2023-04-10T00:35:27.403Z,83.40
2023-04-10T00:36:00.921Z,83.38
2023-04-10T00:36:34.959Z,83.38
2023-04-10T00:37:08.466Z,83.35
2023-04-10T00:37:42.142Z,83.30
2023-04-10T00:38:15.658Z,83.26
2023-04-10T00:38:50.082Z,83.35
2023-04-10T00:39:23.574Z,83.44
2023-04-10T00:39:57.216Z,83.35
2023-04-10T00:40:30.756Z,83.41
2023-04-10T00:41:04.599Z,83.50
2023-04-10T00:41:38.165Z,83.46
2023-04-10T00:42:11.613Z,83.43
2023-04-10T00:42:45.538Z,83.54
2023-04-10T00:43:20.532Z,83.53
2023-04-10T00:43:57.838Z,83.60
2023-04-10T00:44:31.826Z,83.61
2023-04-10T00:45:05.830Z,83.57
2023-04-10T00:45:42.034Z,83.58
2023-04-10T00:46:16.251Z,83.65
2023-04-10T00:46:49.957Z,83.60
2023-04-10T00:47:23.681Z,83.55
2023-04-10T00:47:58.157Z,83.62
2023-04-10T00:48:31.794Z,83.64
2023-04-10T00:49:06.476Z,83.62
2023-04-10T00:49:41.623Z,83.60
2023-04-10T00:50:15.085Z,83.58
2023-04-10T00:50:48.732Z,83.51
2023-04-10T00:51:23.296Z,83.52
2023-04-10T00:51:58.335Z,83.50
2023-04-10T00:52:32.926Z,83.42
2023-04-10T00:53:06.720Z,83.36
2023-04-10T00:53:40.254Z,83.24
2023-04-10T00:54:14.173Z,83.27
2023-04-10T00:54:47.908Z,83.28
2023-04-10T00:55:21.522Z,83.20
2023-04-10T00:55:56.472Z,83.13
2023-04-10T00:56:33.819Z,83.17
2023-04-10T00:57:07.744Z,83.18
2023-04-10T00:57:46.331Z,83.23
2023-04-10T00:58:19.831Z,83.19
2023-04-10T00:58:53.375Z,83.24
2023-04-10T00:59:26.934Z,83.23
2023-04-10T01:00:00.942Z,83.20
2023-04-10T01:00:34.754Z,83.27
2023-04-10T01:01:08.890Z,83.18
2023-04-10T01:01:42.426Z,83.21
2023-04-10T01:02:16.034Z,83.21
2023-04-10T01:02:50.676Z,83.16
2023-04-10T01:03:25.628Z,83.28
2023-04-10T01:04:00.154Z,83.23
2023-04-10T01:04:34.801Z,83.32
2023-04-10T01:05:09.505Z,83.26
2023-04-10T01:05:51.950Z,83.27
2023-04-10T01:06:37.704Z,83.36
2023-04-10T01:07:41.763Z,83.33
2023-04-10T01:08:26.985Z,83.32
2023-04-10T01:09:11.657Z,83.36
2023-04-10T01:09:53.897Z,83.41
2023-04-10T01:10:38.825Z,83.39
2023-04-10T01:11:45.527Z,83.35
2023-04-10T01:13:06.017Z,83.35
2023-04-10T01:14:05.914Z,83.37
2023-04-10T01:15:07.248Z,83.38
2023-04-10T01:15:50.289Z,83.32
2023-04-10T01:16:29.954Z,83.43
2023-04-10T01:17:22.225Z,83.38
2023-04-10T01:18:14.072Z,83.48
2023-04-10T01:19:17.921Z,83.45
2023-04-10T01:20:10.618Z,83.60
2023-04-10T01:20:44.513Z,83.62
2023-04-10T01:21:18.534Z,83.57
2023-04-10T01:21:55.597Z,83.56
2023-04-10T01:22:42.074Z,83.50
2023-04-10T01:23:59.492Z,83.56
2023-04-10T01:25:14.195Z,83.63
2023-04-10T01:25:59.647Z,83.59
2023-04-10T01:26:51.748Z,83.57
2023-04-10T01:27:40.601Z,83.59
2023-04-10T01:28:20.223Z,83.62
2023-04-10T01:29:09.757Z,83.67
2023-04-10T01:29:48.488Z,83.62
2023-04-10T01:30:23.310Z,83.67
2023-04-10T01:31:01.598Z,83.63
2023-04-10T01:31:46.715Z,83.66
2023-04-10T01:32:23.212Z,83.58
2023-04-10T01:33:02.282Z,83.62
2023-04-10T01:33:50.907Z,83.68
2023-04-10T01:34:28.325Z,83.68
2023-04-10T01:35:07.821Z,83.72
2023-04-10T01:35:43.358Z,83.75
2023-04-10T01:36:28.305Z,83.73
2023-04-10T01:37:05.515Z,83.77
2023-04-10T01:37:43.959Z,83.77
2023-04-10T01:38:19.462Z,83.72
2023-04-10T01:38:54.879Z,83.78
2023-04-10T01:39:30.708Z,83.76
2023-04-10T01:40:10.772Z,83.79
2023-04-10T01:40:50.423Z,83.79
2023-04-10T01:41:33.360Z,83.75
2023-04-10T01:42:09.293Z,83.79
2023-04-10T01:42:48.981Z,83.74
2023-04-10T01:43:23.564Z,83.80
2023-04-10T01:43:59.570Z,83.80
2023-04-10T01:44:36.900Z,83.84
2023-04-10T01:45:16.577Z,83.91
2023-04-10T01:45:53.362Z,83.85
2023-04-10T01:46:28.428Z,83.83
2023-04-10T01:47:03.360Z,83.89
2023-04-10T01:47:37.120Z,83.85
2023-04-10T01:48:11.804Z,83.85
2023-04-10T01:48:46.886Z,83.74
2023-04-10T01:50:44.003Z,83.92
2023-04-10T01:51:18.067Z,83.83
2023-04-10T01:51:52.106Z,83.82
2023-04-10T01:52:27.259Z,83.79
2023-04-10T01:53:10.907Z,83.81
2023-04-10T01:53:46.360Z,83.79
2023-04-10T01:54:20.580Z,83.78
2023-04-10T01:54:55.181Z,83.76
2023-04-10T01:55:37.715Z,83.80
2023-04-10T01:56:13.929Z,83.86
2023-04-10T01:56:53.115Z,83.82
2023-04-10T01:57:26.993Z,83.87
2023-04-10T01:58:04.951Z,83.86
2023-04-10T01:58:38.772Z,83.90
2023-04-10T01:59:13.132Z,83.95
2023-04-10T01:59:46.967Z,83.91
2023-04-10T02:00:20.961Z,83.98
2023-04-10T02:00:54.493Z,83.99
2023-04-10T02:01:30.261Z,84.04
2023-04-10T02:02:05.137Z,84.06
2023-04-10T02:02:38.810Z,84.10
2023-04-10T02:03:12.607Z,84.06
2023-04-10T02:03:46.838Z,84.07
2023-04-10T02:04:20.837Z,84.17
2023-04-10T02:04:54.423Z,84.12
2023-04-10T02:05:33.925Z,84.17
2023-04-10T02:06:15.766Z,84.16
2023-04-10T02:06:49.166Z,84.14
2023-04-10T02:07:31.854Z,84.09
2023-04-10T02:08:15.897Z,84.04
2023-04-10T02:08:57.868Z,84.12
2023-04-10T02:09:43.426Z,84.16
2023-04-10T02:10:30.011Z,84.21
2023-04-10T02:11:18.283Z,84.19
2023-04-10T02:11:54.640Z,84.31
2023-04-10T02:12:44.429Z,84.34
2023-04-10T02:13:23.752Z,84.34
2023-04-10T02:14:02.433Z,84.36
2023-04-10T02:14:39.565Z,84.42
2023-04-10T02:15:13.640Z,84.36
2023-04-10T02:15:48.100Z,84.44
2023-04-10T02:16:23.225Z,84.63
2023-04-10T02:16:57.218Z,84.51
2023-04-10T02:17:31.746Z,84.58
2023-04-10T02:18:06.816Z,84.50
2023-04-10T02:18:42.616Z,84.57
2023-04-10T02:19:17.820Z,84.57
2023-04-10T02:19:53.548Z,84.69
2023-04-10T02:20:27.253Z,84.57
2023-04-10T02:21:01.886Z,84.67
2023-04-10T02:21:36.442Z,84.72
2023-04-10T02:22:09.946Z,84.69
2023-04-10T02:22:44.335Z,84.74
2023-04-10T02:23:18.433Z,84.67
2023-04-10T02:23:52.305Z,84.76
2023-04-10T02:24:26.277Z,84.77
2023-04-10T02:24:59.989Z,84.78
2023-04-10T02:25:34.025Z,84.81
2023-04-10T02:26:09.078Z,84.77
2023-04-10T02:26:49.960Z,84.76
2023-04-10T02:27:35.167Z,84.72
2023-04-10T02:28:09.152Z,84.77
2023-04-10T02:28:42.613Z,84.77
2023-04-10T02:29:16.122Z,84.73
2023-04-10T02:29:49.557Z,84.70
2023-04-10T02:30:23.756Z,84.69
2023-04-10T02:30:57.710Z,84.67
2023-04-10T02:31:31.089Z,84.67
2023-04-10T02:32:05.116Z,84.62
2023-04-10T02:32:38.576Z,84.69
2023-04-10T02:33:14.534Z,84.64
2023-04-10T02:33:48.447Z,84.63
2023-04-10T02:34:21.918Z,84.59
2023-04-10T02:34:56.652Z,84.57
2023-04-10T02:35:29.994Z,84.57
2023-04-10T02:36:03.760Z,84.52
2023-04-10T02:36:38.974Z,84.53
2023-04-10T02:37:12.531Z,84.51
2023-04-10T02:37:47.706Z,84.47
2023-04-10T02:38:21.655Z,84.48
2023-04-10T02:38:55.299Z,84.47
2023-04-10T02:39:29.650Z,84.45
2023-04-10T02:40:03.357Z,84.49
2023-04-10T02:40:43.389Z,84.49
2023-04-10T02:41:20.979Z,84.46
2023-04-10T02:41:54.533Z,84.48
2023-04-10T02:42:28.025Z,84.44
2023-04-10T02:43:03.388Z,84.53
2023-04-10T02:43:37.683Z,84.54
2023-04-10T02:44:11.337Z,84.52
2023-04-10T02:44:45.008Z,84.49
2023-04-10T02:45:18.648Z,84.56
2023-04-10T02:45:52.356Z,84.52
2023-04-10T02:46:29.677Z,84.49
2023-04-10T02:47:03.935Z,84.54
2023-04-10T02:47:37.853Z,84.46
2023-04-10T02:48:11.493Z,84.37
2023-04-10T02:48:45.596Z,84.28
2023-04-10T02:49:19.131Z,84.34
2023-04-10T02:49:52.592Z,84.26
2023-04-10T02:50:29.891Z,84.25
2023-04-10T02:51:04.052Z,84.25
2023-04-10T02:51:37.681Z,84.24
2023-04-10T02:52:11.488Z,84.21
2023-04-10T02:52:45.056Z,84.15
2023-04-10T02:53:20.336Z,84.09
2023-04-10T02:53:53.969Z,84.03
2023-04-10T02:54:34.677Z,84.00
2023-04-10T02:55:08.356Z,84.01
2023-04-10T02:55:43.181Z,83.99
2023-04-10T02:56:16.854Z,83.98
2023-04-10T02:56:50.621Z,83.91
2023-04-10T02:57:24.157Z,83.89
2023-04-10T02:57:57.735Z,83.82
2023-04-10T02:58:31.868Z,83.84
2023-04-10T02:59:06.135Z,83.81
2023-04-10T02:59:39.803Z,83.83
2023-04-10T03:00:14.308Z,83.78
2023-04-10T03:01:09.968Z,83.63
2023-04-10T03:01:47.564Z,83.52
2023-04-10T03:02:21.980Z,83.65
2023-04-10T03:02:56.559Z,83.58
2023-04-10T03:03:31.110Z,83.58
2023-04-10T03:04:05.571Z,83.52
2023-04-10T03:04:43.375Z,83.48
2023-04-10T03:05:16.975Z,83.45
2023-04-10T03:05:50.698Z,83.41
2023-04-10T03:06:27.516Z,83.40
2023-04-10T03:07:02.080Z,83.45
2023-04-10T03:07:35.848Z,83.34
2023-04-10T03:08:10.121Z,83.27
2023-04-10T03:08:43.535Z,83.21
2023-04-10T03:09:18.051Z,83.08
2023-04-10T03:09:51.602Z,83.09
2023-04-10T03:10:25.078Z,83.03
2023-04-10T03:10:58.513Z,82.96
2023-04-10T03:11:31.968Z,82.78
2023-04-10T03:12:05.583Z,82.69
2023-04-10T03:12:38.921Z,82.65
2023-04-10T03:13:12.544Z,82.65
2023-04-10T03:13:46.172Z,82.63
2023-04-10T03:14:20.022Z,82.56
2023-04-10T03:14:53.753Z,82.59
2023-04-10T03:15:27.256Z,82.55
2023-04-10T03:16:00.750Z,82.56
2023-04-10T03:16:34.618Z,82.54
2023-04-10T03:17:09.907Z,82.54
2023-04-10T03:17:43.698Z,82.42
2023-04-10T03:18:17.389Z,82.53
2023-04-10T03:18:51.887Z,82.47
2023-04-10T03:19:26.901Z,82.50
2023-04-10T03:20:00.592Z,82.49
2023-04-10T03:20:34.516Z,82.42
2023-04-10T03:21:09.781Z,82.50
2023-04-10T03:21:43.249Z,82.38
2023-04-10T03:22:16.617Z,82.42
2023-04-10T03:22:50.976Z,82.46
2023-04-10T03:23:24.544Z,82.35
2023-04-10T03:23:58.250Z,82.29
2023-04-10T03:24:31.909Z,82.38
2023-04-10T03:25:06.001Z,82.28
2023-04-10T03:25:39.579Z,82.20
2023-04-10T03:26:13.679Z,82.18
2023-04-10T03:26:48.010Z,82.20
2023-04-10T03:27:22.031Z,82.09
2023-04-10T03:27:55.806Z,82.05
2023-04-10T03:28:29.998Z,82.00
2023-04-10T03:29:04.457Z,81.90
2023-04-10T03:29:37.905Z,81.98
2023-04-10T03:30:11.835Z,81.90
2023-04-10T03:30:47.205Z,81.77
2023-04-10T03:31:20.856Z,81.72
2023-04-10T03:31:54.462Z,81.63
2023-04-10T03:32:31.333Z,81.54
2023-04-10T03:33:04.659Z,81.51
2023-04-10T03:33:38.287Z,81.57
2023-04-10T03:34:11.830Z,81.49
2023-04-10T03:34:45.360Z,81.52
2023-04-10T03:35:19.012Z,81.50
2023-04-10T03:35:53.970Z,81.42
2023-04-10T03:36:28.246Z,81.43
2023-04-10T03:37:01.651Z,81.41
2023-04-10T03:37:36.407Z,81.39
2023-04-10T03:38:12.511Z,81.37
2023-04-10T03:38:46.742Z,81.38
2023-04-10T03:39:21.018Z,81.41
2023-04-10T03:39:54.418Z,81.35
2023-04-10T03:40:28.071Z,81.36
2023-04-10T03:41:02.085Z,81.30
2023-04-10T03:41:37.252Z,81.40
2023-04-10T03:42:11.683Z,81.37
2023-04-10T03:42:45.901Z,81.44
2023-04-10T03:43:19.656Z,81.44
2023-04-10T03:43:53.721Z,81.46
2023-04-10T03:44:27.609Z,81.52
2023-04-10T03:45:04.937Z,81.55
2023-04-10T03:45:38.478Z,81.53
2023-04-10T03:46:12.402Z,81.60
2023-04-10T03:46:48.335Z,81.62
2023-04-10T03:47:22.070Z,81.58
2023-04-10T03:47:56.862Z,81.64
2023-04-10T03:48:30.919Z,81.62
2023-04-10T03:49:04.453Z,81.69
2023-04-10T03:49:38.774Z,81.70
2023-04-10T03:50:13.323Z,81.75
2023-04-10T03:51:08.312Z,81.72
2023-04-10T03:51:41.924Z,81.81
2023-04-10T03:52:15.645Z,81.84
2023-04-10T03:52:52.069Z,81.92
2023-04-10T03:53:26.827Z,81.94
2023-04-10T03:54:00.959Z,82.04
2023-04-10T03:54:34.857Z,81.98
2023-04-10T03:55:08.628Z,81.98
2023-04-10T03:55:42.322Z,82.08
2023-04-10T03:56:16.776Z,82.08
2023-04-10T03:56:51.834Z,82.07
2023-04-10T03:57:32.100Z,82.06
2023-04-10T03:58:12.511Z,82.07
2023-04-10T03:58:46.128Z,82.12
2023-04-10T03:59:19.879Z,82.21
2023-04-10T03:59:53.587Z,82.19
2023-04-10T04:00:27.604Z,82.20
2023-04-10T04:01:07.952Z,82.25
2023-04-10T04:01:47.596Z,82.24
2023-04-10T04:02:21.336Z,82.29
2023-04-10T04:02:55.542Z,82.30
2023-04-10T04:03:47.893Z,82.38
2023-04-10T04:04:40.873Z,82.44
2023-04-10T04:05:52.746Z,82.41
2023-04-10T04:06:35.593Z,82.50
2023-04-10T04:07:18.393Z,82.56
2023-04-10T04:08:10.254Z,82.63
2023-04-10T04:09:02.159Z,82.72
2023-04-10T04:10:10.174Z,82.73
2023-04-10T04:11:04.783Z,82.83
2023-04-10T04:12:13.461Z,82.83
2023-04-10T04:12:46.826Z,82.80
2023-04-10T04:13:57.552Z,82.93
2023-04-10T04:14:52.884Z,82.91
2023-04-10T04:15:53.638Z,82.88
2023-04-10T04:16:43.674Z,82.83
2023-04-10T04:17:49.517Z,82.99
2023-04-10T04:18:41.064Z,82.99
2023-04-10T04:19:37.467Z,83.01
2023-04-10T04:20:22.857Z,83.05
2023-04-10T04:21:08.795Z,83.09
2023-04-10T04:22:05.048Z,83.08
2023-04-10T04:22:58.364Z,83.14
2023-04-10T04:24:11.854Z,83.23
2023-04-10T04:25:11.807Z,83.20
2023-04-10T04:26:05.965Z,83.21
2023-04-10T04:26:59.959Z,83.24
2023-04-10T04:27:53.922Z,83.21
2023-04-10T04:28:44.743Z,83.30
2023-04-10T04:29:39.382Z,83.36
2023-04-10T04:30:21.482Z,83.35
2023-04-10T04:31:32.834Z,83.42
2023-04-10T04:32:21.787Z,83.39
2023-04-10T04:33:22.313Z,83.22
2023-04-10T04:34:03.528Z,83.16
2023-04-10T04:35:06.736Z,83.14
2023-04-10T04:35:57.422Z,83.18
2023-04-10T04:36:42.904Z,83.28
2023-04-10T04:37:42.567Z,83.41
2023-04-10T04:38:34.132Z,83.42
2023-04-10T04:39:19.025Z,83.43
2023-04-10T04:40:11.309Z,83.45
2023-04-10T04:41:07.783Z,83.42
2023-04-10T04:42:07.892Z,83.45
2023-04-10T04:42:54.690Z,83.46
2023-04-10T04:43:32.885Z,83.40
2023-04-10T04:44:13.219Z,83.40
2023-04-10T04:45:05.558Z,83.29
2023-04-10T04:46:10.977Z,83.40
2023-04-10T04:47:13.778Z,83.36
2023-04-10T04:48:52.501Z,83.28
2023-04-10T04:49:45.880Z,83.30
2023-04-10T04:50:32.971Z,83.25
2023-04-10T04:51:09.018Z,83.27
2023-04-10T04:51:47.641Z,83.24
2023-04-10T04:52:35.472Z,83.18
2023-04-10T04:53:21.217Z,83.17
2023-04-10T04:54:14.868Z,83.21
2023-04-10T04:55:01.453Z,83.11
2023-04-10T04:55:55.027Z,83.18
2023-04-10T04:56:45.023Z,83.20
2023-04-10T04:57:45.113Z,83.15
2023-04-10T04:59:04.375Z,83.03
2023-04-10T04:59:54.177Z,82.98
2023-04-10T05:00:47.966Z,82.89
2023-04-10T05:01:47.718Z,82.84
2023-04-10T05:02:39.851Z,82.90
2023-04-10T05:03:48.886Z,82.80
2023-04-10T05:04:49.187Z,82.80
2023-04-10T05:05:43.368Z,82.84
2023-04-10T05:06:32.051Z,82.77
2023-04-10T05:07:34.818Z,82.87
2023-04-10T05:08:19.963Z,82.87
2023-04-10T05:09:07.511Z,82.93
2023-04-10T05:09:59.515Z,82.92
2023-04-10T05:11:07.603Z,82.96
2023-04-10T05:11:47.306Z,82.99
2023-04-10T05:12:27.810Z,82.92
2023-04-10T05:13:21.693Z,82.90
2023-04-10T05:14:14.988Z,82.92
2023-04-10T05:15:04.612Z,82.96
2023-04-10T05:15:58.293Z,82.99
2023-04-10T05:16:46.233Z,83.07
2023-04-10T05:17:30.155Z,83.11
2023-04-10T05:18:21.873Z,83.16
2023-04-10T05:19:27.538Z,83.22
2023-04-10T05:20:21.884Z,83.19
2023-04-10T05:21:16.062Z,83.25
2023-04-10T05:22:28.877Z,83.30
2023-04-10T05:23:31.550Z,83.44
2023-04-10T05:24:25.225Z,83.41
2023-04-10T05:25:19.378Z,83.43
2023-04-10T05:26:31.101Z,83.35
2023-04-10T05:27:50.472Z,83.28
2023-04-10T05:29:18.564Z,83.49
2023-04-10T05:30:04.169Z,83.49
2023-04-10T05:30:48.156Z,83.42
2023-04-10T05:31:39.888Z,83.49
2023-04-10T05:32:36.220Z,83.46
2023-04-10T05:33:26.234Z,83.52
2023-04-10T05:34:15.031Z,83.50
2023-04-10T05:35:07.578Z,83.68
2023-04-10T05:35:53.689Z,83.75
2023-04-10T05:36:47.599Z,83.81
2023-04-10T05:37:28.328Z,83.89
2023-04-10T05:38:08.945Z,83.81
2023-04-10T05:38:50.335Z,83.88
2023-04-10T05:39:42.209Z,83.82
2023-04-10T05:40:39.127Z,83.82
2023-04-10T05:41:31.494Z,83.80
2023-04-10T05:42:23.938Z,83.83
2023-04-10T05:43:22.564Z,83.85
2023-04-10T05:44:11.145Z,83.84
2023-04-10T05:45:04.921Z,83.81
2023-04-10T05:45:56.692Z,83.92
2023-04-10T05:47:10.691Z,83.86
2023-04-10T05:47:47.188Z,83.88
2023-04-10T05:48:33.747Z,83.97
2023-04-10T05:49:22.707Z,84.00
2023-04-10T05:50:14.702Z,84.04
2023-04-10T05:51:16.969Z,83.97
2023-04-10T05:52:28.473Z,84.02
2023-04-10T05:53:14.190Z,84.15
2023-04-10T05:54:10.589Z,84.06
2023-04-10T05:55:16.260Z,84.25
2023-04-10T05:56:02.523Z,84.31
2023-04-10T05:56:45.241Z,84.39
2023-04-10T05:57:37.217Z,84.34
2023-04-10T05:58:43.048Z,84.47
2023-04-10T05:59:31.734Z,84.64
2023-04-10T06:00:25.657Z,84.67
2023-04-10T06:01:29.208Z,84.68
2023-04-10T06:02:06.582Z,84.85
2023-04-10T06:02:40.163Z,84.83
2023-04-10T06:03:18.708Z,84.93
2023-04-10T06:03:57.908Z,84.95
2023-04-10T06:04:32.258Z,85.00
2023-04-10T06:05:07.460Z,85.04
2023-04-10T06:05:41.809Z,85.05
2023-04-10T06:06:15.446Z,85.21
2023-04-10T06:06:49.187Z,85.18
2023-04-10T06:07:22.748Z,85.33
2023-04-10T06:07:59.410Z,85.32
2023-04-10T06:08:33.088Z,85.40
2023-04-10T06:09:06.627Z,85.47
2023-04-10T06:09:40.791Z,85.49
2023-04-10T06:10:14.680Z,85.63
2023-04-10T06:10:48.127Z,85.82
2023-04-10T06:11:22.076Z,85.88
2023-04-10T06:11:58.491Z,85.87
2023-04-10T06:12:32.345Z,86.00
2023-04-10T06:13:09.229Z,86.05
2023-04-10T06:13:44.402Z,86.16
2023-04-10T06:14:19.751Z,86.04
2023-04-10T06:14:53.447Z,86.10
2023-04-10T06:15:28.034Z,86.15
2023-04-10T06:16:02.584Z,86.13
2023-04-10T06:16:37.080Z,86.21
2023-04-10T06:17:10.645Z,86.13
2023-04-10T06:17:44.708Z,86.32
2023-04-10T06:18:19.780Z,86.37
2023-04-10T06:18:55.126Z,86.38
2023-04-10T06:19:28.869Z,86.38
2023-04-10T06:20:05.014Z,86.28
2023-04-10T06:20:38.669Z,86.33
2023-04-10T06:21:12.152Z,86.23
2023-04-10T06:21:45.768Z,86.28
2023-04-10T06:22:19.124Z,86.20
2023-04-10T06:22:52.561Z,86.10
2023-04-10T06:23:26.876Z,86.06
2023-04-10T06:24:00.910Z,86.04
2023-04-10T06:24:34.480Z,85.95
2023-04-10T06:25:08.353Z,85.94
2023-04-10T06:25:41.987Z,85.94
2023-04-10T06:26:15.679Z,85.91
2023-04-10T06:26:49.108Z,85.86
2023-04-10T06:27:22.508Z,85.87
2023-04-10T06:27:56.424Z,85.81
2023-04-10T06:28:30.558Z,85.78
2023-04-10T06:29:06.504Z,85.75
2023-04-10T06:29:40.646Z,85.79
2023-04-10T06:30:13.958Z,85.66
2023-04-10T06:30:47.506Z,85.78
2023-04-10T06:31:24.232Z,85.70
2023-04-10T06:31:57.792Z,85.70
2023-04-10T06:32:31.755Z,85.71
2023-04-10T06:33:05.368Z,85.69
2023-04-10T06:33:40.154Z,85.64
2023-04-10T06:34:14.507Z,85.58
2023-04-10T06:34:56.182Z,85.42
2023-04-10T06:35:29.808Z,85.55
2023-04-10T06:36:04.321Z,85.49
2023-04-10T06:36:41.023Z,85.38
2023-04-10T06:37:14.460Z,85.34
2023-04-10T06:37:47.959Z,85.30
2023-04-10T06:38:21.978Z,85.41
2023-04-10T06:38:55.801Z,85.37
2023-04-10T06:39:29.698Z,85.11
2023-04-10T06:40:08.824Z,85.02
2023-04-10T06:40:42.281Z,85.01
2023-04-10T06:41:15.893Z,84.90
2023-04-10T06:41:49.436Z,84.92
2023-04-10T06:42:35.601Z,84.73
2023-04-10T06:43:15.158Z,84.67
2023-04-10T06:43:49.312Z,84.76
2023-04-10T06:44:22.798Z,84.84
2023-04-10T06:44:56.115Z,84.72
2023-04-10T06:45:29.623Z,84.41
2023-04-10T06:46:05.196Z,84.45
2023-04-10T06:46:38.998Z,84.71
2023-04-10T06:47:13.426Z,84.55
2023-04-10T06:47:47.101Z,84.43
2023-04-10T06:48:20.630Z,84.46
2023-04-10T06:48:54.287Z,84.48
2023-04-10T06:49:27.813Z,84.50
2023-04-10T06:50:01.357Z,84.53
2023-04-10T06:50:34.985Z,84.44
2023-04-10T06:51:08.430Z,84.37
2023-04-10T06:51:42.080Z,84.21
2023-04-10T06:52:15.589Z,84.25
2023-04-10T06:52:49.065Z,84.24
2023-04-10T06:53:22.596Z,84.21
2023-04-10T06:53:56.429Z,84.19
2023-04-10T06:54:29.926Z,84.10
2023-04-10T06:55:03.512Z,84.07
2023-04-10T06:55:37.849Z,83.69
2023-04-10T06:56:11.448Z,83.68
2023-04-10T06:56:44.850Z,83.63
2023-04-10T06:57:19.063Z,83.83
2023-04-10T06:57:52.724Z,83.87
2023-04-10T06:58:26.565Z,83.86
2023-04-10T06:58:59.917Z,83.81
2023-04-10T06:59:35.076Z,83.73
2023-04-10T07:00:09.778Z,83.47
2023-04-10T07:00:43.438Z,83.48
2023-04-10T07:01:17.980Z,83.54
2023-04-10T07:01:51.483Z,83.50
2023-04-10T07:02:25.185Z,83.43
2023-04-10T07:02:58.670Z,83.32
2023-04-10T07:03:32.944Z,83.30
2023-04-10T07:04:06.632Z,83.23
2023-04-10T07:04:39.970Z,83.02
2023-04-10T07:05:14.450Z,83.01
2023-04-10T07:05:47.937Z,82.75
2023-04-10T07:06:21.473Z,82.65
2023-04-10T07:06:54.969Z,82.72
2023-04-10T07:07:29.422Z,82.51
2023-04-10T07:08:02.886Z,82.19
2023-04-10T07:08:49.350Z,81.74
2023-04-10T07:09:26.406Z,82.16
2023-04-10T07:09:59.837Z,82.25
2023-04-10T07:10:33.286Z,82.12
2023-04-10T07:11:07.071Z,82.18
2023-04-10T07:11:40.881Z,82.03
2023-04-10T07:12:14.294Z,82.09
2023-04-10T07:12:47.830Z,81.91
2023-04-10T07:13:21.646Z,81.85
2023-04-10T07:13:58.797Z,81.80
2023-04-10T07:14:34.010Z,81.68
2023-04-10T07:15:08.572Z,81.52
2023-04-10T07:15:42.172Z,81.45
2023-04-10T07:16:17.254Z,81.42
2023-04-10T07:16:51.414Z,81.34
2023-04-10T07:17:25.072Z,81.27
2023-04-10T07:17:58.435Z,81.11
2023-04-10T07:18:31.850Z,80.57
2023-04-10T07:19:05.426Z,79.84
2023-04-10T07:19:38.740Z,79.44
2023-04-10T07:20:12.336Z,79.64
2023-04-10T07:20:45.782Z,79.80
2023-04-10T07:21:19.151Z,79.99
2023-04-10T07:21:52.531Z,80.03
2023-04-10T07:22:26.619Z,79.71
2023-04-10T07:23:00.134Z,79.77
2023-04-10T07:23:36.624Z,79.87
2023-04-10T07:24:10.046Z,79.99
2023-04-10T07:24:43.626Z,80.23
2023-04-10T07:25:18.562Z,80.28
2023-04-10T07:25:52.356Z,80.25
2023-04-10T07:26:26.348Z,80.41
2023-04-10T07:27:00.980Z,80.42
2023-04-10T07:27:34.567Z,80.19
2023-04-10T07:28:07.987Z,80.16
2023-04-10T07:28:41.551Z,80.21
2023-04-10T07:29:15.683Z,80.12
2023-04-10T07:29:49.038Z,79.91
2023-04-10T07:30:22.504Z,79.35
2023-04-10T07:30:56.019Z,79.58
2023-04-10T07:31:29.643Z,79.71
2023-04-10T07:32:03.388Z,79.60
2023-04-10T07:32:37.774Z,79.10
2023-04-10T07:33:11.594Z,78.65
2023-04-10T07:33:47.010Z,78.87
2023-04-10T07:34:20.455Z,78.55
2023-04-10T07:34:53.955Z,78.61
2023-04-10T07:35:27.617Z,78.68
2023-04-10T07:36:02.731Z,78.66
2023-04-10T07:36:36.630Z,79.08
2023-04-10T07:37:10.144Z,79.25
2023-04-10T07:37:44.429Z,79.08
2023-04-10T07:38:18.171Z,79.03
2023-04-10T07:38:52.040Z,78.92
2023-04-10T07:39:25.722Z,79.07
2023-04-10T07:39:59.255Z,79.07
2023-04-10T07:40:32.737Z,79.00
2023-04-10T07:41:06.487Z,79.00
2023-04-10T07:41:40.538Z,79.19
2023-04-10T07:42:13.965Z,79.30
2023-04-10T07:42:48.490Z,79.31
2023-04-10T07:43:22.181Z,79.25
2023-04-10T07:43:55.743Z,79.25
2023-04-10T07:44:29.242Z,79.33
2023-04-10T07:45:02.820Z,79.45
2023-04-10T07:45:36.519Z,79.35
2023-04-10T07:47:44.569Z,79.02
2023-04-10T07:48:25.923Z,78.70
2023-04-10T07:48:59.863Z,78.61
2023-04-10T07:49:33.272Z,78.63
2023-04-10T07:50:07.967Z,78.42
2023-04-10T07:50:41.550Z,78.11
2023-04-10T07:51:15.676Z,77.51
2023-04-10T07:51:49.128Z,77.28
2023-04-10T07:52:23.021Z,77.34
2023-04-10T07:52:56.692Z,77.58
2023-04-10T07:53:30.176Z,77.86
2023-04-10T07:54:06.771Z,77.85
2023-04-10T07:54:40.166Z,77.80
2023-04-10T07:55:13.661Z,77.73
2023-04-10T07:55:49.790Z,77.80
2023-04-10T07:56:23.557Z,77.48
2023-04-10T07:56:56.958Z,77.62
2023-04-10T07:57:32.409Z,77.87
2023-04-10T07:58:06.526Z,78.07
2023-04-10T07:58:40.019Z,78.06
2023-04-10T07:59:13.507Z,78.15
2023-04-10T07:59:47.178Z,78.29
2023-04-10T08:00:20.783Z,78.49
2023-04-10T08:00:54.157Z,78.56
2023-04-10T08:01:29.046Z,78.47
2023-04-10T08:02:02.674Z,78.42
2023-04-10T08:02:36.568Z,78.63
2023-04-10T08:03:10.564Z,78.49
2023-04-10T08:03:47.200Z,78.36
2023-04-10T08:04:21.271Z,78.43
2023-04-10T08:04:55.021Z,78.30
2023-04-10T08:05:28.952Z,78.00
2023-04-10T08:06:02.403Z,77.88
2023-04-10T08:06:35.971Z,77.47
2023-04-10T08:07:09.467Z,77.07
2023-04-10T08:07:43.104Z,77.13
2023-04-10T08:08:17.116Z,77.11
2023-04-10T08:08:52.757Z,76.84
2023-04-10T08:09:26.592Z,76.74
2023-04-10T08:10:01.620Z,76.44
2023-04-10T08:10:39.294Z,76.26
2023-04-10T08:11:28.069Z,75.86
2023-04-10T08:12:01.594Z,75.49
2023-04-10T08:12:37.087Z,75.59
2023-04-10T08:13:10.587Z,75.55
2023-04-10T08:13:44.040Z,75.72
2023-04-10T08:14:17.956Z,75.84
2023-04-10T08:14:52.092Z,75.78
2023-04-10T08:15:25.762Z,75.58
2023-04-10T08:15:59.151Z,75.65
2023-04-10T08:16:34.686Z,75.30
2023-04-10T08:17:14.816Z,75.13
2023-04-10T08:17:48.532Z,74.96
2023-04-10T08:18:24.448Z,75.22
2023-04-10T08:18:59.154Z,75.15
2023-04-10T08:19:32.612Z,74.63
2023-04-10T08:20:07.938Z,74.87
2023-04-10T08:20:41.342Z,74.94
2023-04-10T08:21:14.797Z,74.76
2023-04-10T08:21:48.209Z,74.83
2023-04-10T08:22:21.649Z,74.59